Time;durP1;ratioP1;P1;durP2;ratioP2;P2;SDS_P1;SDS_P2;PMS_P1;PMS_P2;Temp;Humidity;BMP_temperature;BMP_pressure;BME280_temperature;BME280_humidity;BME280_pressure;Samples;Min_cycle;Max_cycle;Signal;HPM_P1;HPM_P2
2023/10/29 00:00:09;;;;;;;;;;;;;;;17.50;59.61;97661.63;10330180;28;778;-77
2023/10/29 00:05:05;;;;;;;;;;;;;;;17.49;59.72;97644.16;10329949;28;769;-78
2023/10/29 00:10:01;;;;;;;;;;;;;;;17.49;59.67;97638.91;10329821;28;844;-78
2023/10/29 00:14:57;;;;;;;;;;;;;;;17.46;59.51;97629.44;10329444;28;1893;-78
2023/10/29 00:19:53;;;;;;;;;;;;;;;17.45;59.54;97633.03;10329405;28;960;-78
2023/10/29 00:24:49;;;;;;;;;;;;;;;17.44;59.75;97619.97;10329289;28;935;-78
2023/10/29 00:29:46;;;;;;;;;;;;;;;17.43;59.58;97619.13;10329437;28;1262;-78
2023/10/29 00:34:42;;;;;;;;;;;;;;;17.42;59.75;97611.34;10328777;28;1910;-78
2023/10/29 00:39:39;;;;;;;;;;;;;;;17.40;59.78;97608.00;10328551;28;965;-77
2023/10/29 00:44:35;;;;;;;;;;;;;;;17.40;59.88;97600.94;10328923;28;881;-78
2023/10/29 00:49:31;;;;;;;;;;;;;;;17.39;59.64;97607.16;10328185;28;846;-77
2023/10/29 00:54:27;;;;;;;;;;;;;;;17.39;59.68;97603.69;10327844;28;1913;-77
2023/10/29 00:59:23;;;;;;;;;;;;;;;17.38;59.83;97600.22;10328375;28;877;-77
2023/10/29 01:04:18;;;;;;;;;;;;;;;17.36;59.86;97588.94;10328158;28;869;-77
2023/10/29 01:09:14;;;;;;;;;;;;;;;17.34;59.85;97592.66;10327476;28;935;-78
2023/10/29 01:14:10;;;;;;;;;;;;;;;17.34;59.81;97592.66;10327006;28;1956;-78
2023/10/29 01:19:06;;;;;;;;;;;;;;;17.34;59.92;97590.03;10327631;28;880;-78
2023/10/29 01:24:02;;;;;;;;;;;;;;;17.31;59.86;97578.75;10327495;28;783;-77
2023/10/29 01:28:58;;;;;;;;;;;;;;;17.31;59.66;97583.19;10326927;28;1339;-77
2023/10/29 01:33:54;;;;;;;;;;;;;;;17.30;59.59;97571.00;10327033;28;1917;-78
2023/10/29 01:38:50;;;;;;;;;;;;;;;17.27;59.79;97561.53;10326968;28;855;-78
2023/10/29 01:43:46;;;;;;;;;;;;;;;17.27;59.81;97550.16;10326450;28;835;-78
2023/10/29 01:48:41;;;;;;;;;;;;;;;17.27;59.78;97558.06;10325379;28;788;-78
2023/10/29 01:53:37;;;;;;;;;;;;;;;17.27;59.73;97556.25;10325818;28;2223;-78
2023/10/29 01:58:33;;;;;;;;;;;;;;;17.26;59.65;97557.19;10325853;28;834;-77
2023/10/29 02:03:29;;;;;;;;;;;;;;;17.25;59.81;97559.97;10326433;28;830;-78
2023/10/29 02:08:25;;;;;;;;;;;;;;;17.24;59.76;97577.56;10325530;28;853;-78
2023/10/29 02:13:21;;;;;;;;;;;;;;;17.22;59.64;97549.69;10324710;28;1902;-78
2023/10/29 02:18:17;;;;;;;;;;;;;;;17.20;59.72;97564.75;10325293;28;977;-77
2023/10/29 02:23:13;;;;;;;;;;;;;;;17.21;59.85;97551.47;10325264;28;777;-78
2023/10/29 02:28:09;;;;;;;;;;;;;;;17.19;59.63;97534.13;10330513;28;876;-78
2023/10/29 02:33:05;;;;;;;;;;;;;;;17.19;59.68;97529.69;10334619;28;1134;-78
2023/10/29 02:38:01;;;;;;;;;;;;;;;17.19;59.79;97531.50;10332677;28;1894;-78
2023/10/29 02:42:57;;;;;;;;;;;;;;;17.17;59.82;97536.84;10333067;28;855;-78
2023/10/29 02:47:54;;;;;;;;;;;;;;;17.17;59.66;97536.84;10332395;28;1118;-77
2023/10/29 02:52:50;;;;;;;;;;;;;;;17.16;59.72;97514.13;10333457;28;849;-78
2023/10/29 02:57:46;;;;;;;;;;;;;;;17.16;59.82;97510.63;10332483;28;1878;-78
2023/10/29 03:02:41;;;;;;;;;;;;;;;17.16;59.83;97485.19;10332466;28;831;-77
2023/10/29 03:07:37;;;;;;;;;;;;;;;17.15;59.64;97482.66;10332225;28;867;-78
2023/10/29 03:12:33;;;;;;;;;;;;;;;17.14;59.80;97471.28;10302759;28;1222;-78
2023/10/29 03:17:29;;;;;;;;;;;;;;;17.13;59.86;97477.50;10291209;28;1882;-78
2023/10/29 03:22:25;;;;;;;;;;;;;;;17.13;59.71;97472.22;10291452;28;1631;-78
2023/10/29 03:27:21;;;;;;;;;;;;;;;17.12;59.79;97477.63;10290693;28;886;-78
2023/10/29 03:32:17;;;;;;;;;;;;;;;17.12;59.86;97465.28;10291212;28;1121;-78
2023/10/29 03:37:13;;;;;;;;;;;;;;;17.11;59.76;97475.94;10289884;28;1965;-78
2023/10/29 03:42:09;;;;;;;;;;;;;;;17.09;59.95;97458.47;10290051;28;977;-78
2023/10/29 03:47:04;;;;;;;;;;;;;;;17.10;59.84;97461.94;10289951;28;879;-78
2023/10/29 03:52:00;;;;;;;;;;;;;;;17.10;59.91;97443.50;10289738;28;993;-78
2023/10/29 03:56:56;;;;;;;;;;;;;;;17.07;59.92;97444.59;10290626;28;1945;-77
2023/10/29 04:01:52;;;;;;;;;;;;;;;17.08;59.86;97471.72;10289429;28;997;-78
2023/10/29 04:06:48;;;;;;;;;;;;;;;17.06;59.87;97469.25;10289824;28;794;-78
2023/10/29 04:11:44;;;;;;;;;;;;;;;17.05;59.87;97435.97;10288975;28;771;-78
2023/10/29 04:16:40;;;;;;;;;;;;;;;17.05;59.83;97451.75;10289468;28;1890;-78
2023/10/29 04:21:36;;;;;;;;;;;;;;;17.04;59.93;97438.72;10289351;28;1011;-77
2023/10/29 04:26:32;;;;;;;;;;;;;;;17.04;59.78;97444.00;10288513;28;851;-78
2023/10/29 04:31:28;;;;;;;;;;;;;;;17.03;59.72;97448.44;10288157;28;1431;-78
2023/10/29 04:36:23;;;;;;;;;;;;;;;17.01;60.08;97394.22;10288650;28;1902;-77
2023/10/29 04:41:19;;;;;;;;;;;;;;;17.00;59.74;97396.03;10287851;28;799;-78
2023/10/29 04:46:15;;;;;;;;;;;;;;;17.01;59.94;97388.97;10288552;28;814;-77
2023/10/29 04:51:11;;;;;;;;;;;;;;;17.00;59.75;97405.69;10287368;28;786;-78
2023/10/29 04:56:07;;;;;;;;;;;;;;;17.01;59.73;97438.97;10287326;28;1969;-78
2023/10/29 05:01:03;;;;;;;;;;;;;;;17.04;59.66;97422.94;10287644;28;887;-78
2023/10/29 05:05:59;;;;;;;;;;;;;;;17.15;59.26;97438.72;10286857;28;857;-78
2023/10/29 05:10:55;;;;;;;;;;;;;;;17.21;59.13;97464.59;10286759;28;984;-79
2023/10/29 05:15:50;;;;;;;;;;;;;;;17.23;59.02;97462.66;10286433;28;1953;-78
2023/10/29 05:20:46;;;;;;;;;;;;;;;17.24;58.99;97464.34;10287247;28;798;-78
2023/10/29 05:25:42;;;;;;;;;;;;;;;17.29;58.85;97470.09;10285943;28;861;-78
2023/10/29 05:30:39;;;;;;;;;;;;;;;17.31;58.56;97468.16;10286007;28;1224;-78
2023/10/29 05:35:34;;;;;;;;;;;;;;;17.34;58.67;97488.16;10285734;28;1898;-78
2023/10/29 05:40:32;;;;;;;;;;;;;;;17.39;58.70;97480.75;10286219;28;1025;-78
2023/10/29 05:45:28;;;;;;;;;;;;;;;17.40;58.63;97490.34;10286052;28;933;-78
2023/10/29 05:50:24;;;;;;;;;;;;;;;17.43;58.63;97492.72;10285424;28;858;-78
2023/10/29 05:55:22;;;;;;;;;;;;;;;17.49;58.50;97480.88;10284534;28;1902;-78
2023/10/29 06:00:18;;;;;;;;;;;;;;;17.49;58.42;97491.41;10284304;28;893;-78
2023/10/29 06:05:14;;;;;;;;;;;;;;;17.51;58.41;97492.13;10284366;28;924;-77
2023/10/29 06:10:09;;;;;;;;;;;;;;;17.58;58.12;97511.78;10284791;28;883;-75
2023/10/29 06:15:05;;;;;;;;;;;;;;;17.60;58.11;97509.84;10285618;28;1894;-72
2023/10/29 06:20:01;;;;;;;;;;;;;;;17.60;58.05;97514.28;10313918;28;1050;-73
2023/10/29 06:24:57;;;;;;;;;;;;;;;17.64;58.24;97527.09;10324647;28;889;-75
2023/10/29 06:29:53;;;;;;;;;;;;;;;17.66;58.20;97514.66;10325440;28;1320;-74
2023/10/29 06:34:49;;;;;;;;;;;;;;;17.67;58.21;97510.22;10325552;28;1983;-75
2023/10/29 06:39:45;;;;;;;;;;;;;;;17.67;58.12;97541.81;10325238;28;984;-75
2023/10/29 06:44:41;;;;;;;;;;;;;;;17.69;58.10;97535.47;10326156;28;913;-74
2023/10/29 06:49:37;;;;;;;;;;;;;;;17.73;58.18;97563.25;10324828;28;916;-74
2023/10/29 06:54:33;;;;;;;;;;;;;;;17.82;58.29;97560.91;10324810;28;1902;-78
2023/10/29 06:59:30;;;;;;;;;;;;;;;17.83;58.44;97550.22;10324640;28;940;-77
2023/10/29 07:04:26;;;;;;;;;;;;;;;17.92;58.01;97565.34;10324453;28;870;-78
2023/10/29 07:09:21;;;;;;;;;;;;;;;17.93;58.06;97553.81;10324926;28;869;-75
2023/10/29 07:14:18;;;;;;;;;;;;;;;17.88;58.26;97568.31;10330256;28;1905;-73
2023/10/29 07:19:14;;;;;;;;;;;;;;;17.92;57.94;97577.66;10331694;28;984;-74
2023/10/29 07:24:10;;;;;;;;;;;;;;;17.95;58.16;97572.16;10331664;28;787;-74
2023/10/29 07:29:05;;;;;;;;;;;;;;;17.96;58.27;97574.66;10331765;28;1189;-73
2023/10/29 07:34:01;;;;;;;;;;;;;;;17.95;58.09;97580.91;10331446;28;1909;-73
2023/10/29 07:38:57;;;;;;;;;;;;;;;17.97;58.33;97596.59;10330951;28;858;-74
2023/10/29 07:43:53;;;;;;;;;;;;;;;18.00;58.21;97595.50;10330893;28;783;-74
2023/10/29 07:48:49;;;;;;;;;;;;;;;17.98;58.19;97608.81;10331284;28;840;-74
2023/10/29 07:53:45;;;;;;;;;;;;;;;17.98;58.02;97608.81;10330692;28;2024;-73
2023/10/29 07:58:41;;;;;;;;;;;;;;;18.00;58.19;97612.19;10330937;28;799;-73
2023/10/29 08:03:37;;;;;;;;;;;;;;;18.02;58.07;97612.03;10330857;28;783;-71
2023/10/29 08:08:33;;;;;;;;;;;;;;;18.02;58.20;97617.31;10330017;28;886;-74
2023/10/29 08:13:28;;;;;;;;;;;;;;;18.00;58.08;97628.00;10329066;28;1953;-75
2023/10/29 08:18:24;;;;;;;;;;;;;;;18.04;58.12;97650.50;10330357;28;842;-75
2023/10/29 08:23:20;;;;;;;;;;;;;;;18.06;57.84;97653.88;10328067;28;861;-74
2023/10/29 08:28:16;;;;;;;;;;;;;;;18.13;57.65;97665.63;10329244;28;864;-70
2023/10/29 08:33:12;;;;;;;;;;;;;;;18.06;57.63;97663.59;10325952;28;1148;-72
2023/10/29 08:38:08;;;;;;;;;;;;;;;18.08;57.88;97659.03;10328534;28;1933;-77
2023/10/29 08:43:04;;;;;;;;;;;;;;;18.07;58.11;97645.00;10328212;28;907;-78
2023/10/29 08:48:00;;;;;;;;;;;;;;;18.08;57.91;97651.97;10328378;28;798;-78
2023/10/29 08:52:56;;;;;;;;;;;;;;;18.09;57.77;97656.28;10327779;28;900;-76
2023/10/29 08:57:52;;;;;;;;;;;;;;;18.08;57.41;97680.13;10328101;28;1893;-74
2023/10/29 09:02:48;;;;;;;;;;;;;;;18.09;57.54;97674.72;10327321;28;823;-74
2023/10/29 09:07:44;;;;;;;;;;;;;;;18.08;57.94;97683.59;10327630;28;767;-74
2023/10/29 09:12:40;;;;;;;;;;;;;;;18.08;57.45;97693.31;10326955;28;782;-73
2023/10/29 09:17:36;;;;;;;;;;;;;;;18.12;56.98;97697.38;10326499;28;1863;-79
2023/10/29 09:22:32;;;;;;;;;;;;;;;18.10;57.22;97705.41;10326591;28;958;-77
2023/10/29 09:27:28;;;;;;;;;;;;;;;18.09;57.32;97722.19;10326807;28;948;-75
2023/10/29 09:32:24;;;;;;;;;;;;;;;18.08;56.90;97719.69;10300502;28;1554;-78
2023/10/29 09:37:20;;;;;;;;;;;;;;;18.09;56.29;97724.81;10285350;28;1902;-75
2023/10/29 09:42:17;;;;;;;;;;;;;;;18.25;56.73;97748.22;10284638;28;864;-74
2023/10/29 09:47:14;;;;;;;;;;;;;;;18.18;57.34;97745.22;10285044;28;884;-75
2023/10/29 09:52:10;;;;;;;;;;;;;;;18.20;57.16;97742.44;10284692;28;931;-75
2023/10/29 09:57:06;;;;;;;;;;;;;;;18.17;57.15;97755.88;10284872;28;2019;-75
2023/10/29 10:02:02;;;;;;;;;;;;;;;18.19;57.38;97719.69;10284922;28;888;-76
2023/10/29 10:06:59;;;;;;;;;;;;;;;18.17;57.29;97730.34;10284723;28;952;-75
2023/10/29 10:11:55;;;;;;;;;;;;;;;18.18;57.04;97729.41;10283950;28;810;-75
2023/10/29 10:16:51;;;;;;;;;;;;;;;18.27;57.29;97740.19;10284333;28;1947;-77
2023/10/29 10:21:47;;;;;;;;;;;;;;;18.23;57.70;97725.53;10284840;28;785;-75
2023/10/29 10:26:43;;;;;;;;;;;;;;;18.27;57.63;97742.81;10284886;28;901;-75
2023/10/29 10:31:40;;;;;;;;;;;;;;;18.27;57.64;97740.19;10297303;28;1365;-75
2023/10/29 10:36:36;;;;;;;;;;;;;;;18.26;57.46;97744.63;10324832;28;2036;-75
2023/10/29 10:41:32;;;;;;;;;;;;;;;18.29;57.71;97756.75;10325534;28;846;-75
2023/10/29 10:46:28;;;;;;;;;;;;;;;18.36;57.82;97753.47;10325948;28;916;-72
2023/10/29 10:51:24;;;;;;;;;;;;;;;18.35;57.81;97750.97;10333547;28;912;-74
2023/10/29 10:56:20;;;;;;;;;;;;;;;18.32;58.13;97736.22;10333311;28;1893;-73
2023/10/29 11:01:16;;;;;;;;;;;;;;;18.32;58.07;97738.03;10332406;28;883;-73
2023/10/29 11:06:12;;;;;;;;;;;;;;;18.35;57.96;97743.06;10331545;28;842;-73
2023/10/29 11:11:08;;;;;;;;;;;;;;;18.34;57.92;97760.69;10332299;28;882;-70
2023/10/29 11:16:07;;;;;;;;;;;;;;;18.31;58.00;97736.34;10331669;28;1894;-73
2023/10/29 11:21:04;;;;;;;;;;;;;;;18.35;58.18;97745.72;10332052;28;998;-73
2023/10/29 11:26:00;;;;;;;;;;;;;;;18.38;58.07;97750.75;10331234;28;955;-74
2023/10/29 11:30:56;;;;;;;;;;;;;;;18.39;58.13;97753.28;10331318;28;1460;-73
2023/10/29 11:35:51;;;;;;;;;;;;;;;18.42;58.11;97749.56;10330422;28;1914;-74
2023/10/29 11:40:49;;;;;;;;;;;;;;;18.49;58.06;97753.38;10331702;28;929;-75
2023/10/29 11:45:45;;;;;;;;;;;;;;;18.53;58.25;97768.03;10330949;28;953;-74
2023/10/29 11:50:42;;;;;;;;;;;;;;;18.56;58.51;97761.66;10330738;28;775;-74
2023/10/29 11:55:38;;;;;;;;;;;;;;;18.52;58.62;97774.28;10329962;28;1943;-74
2023/10/29 12:00:33;;;;;;;;;;;;;;;18.48;58.85;97754.34;10329955;28;897;-74
2023/10/29 12:05:29;;;;;;;;;;;;;;;18.49;58.93;97771.84;10329902;28;1228;-73
2023/10/29 12:10:25;;;;;;;;;;;;;;;18.47;58.85;97757.09;10329512;28;893;-72
2023/10/29 12:15:23;;;;;;;;;;;;;;;18.48;58.74;97727.97;10329753;28;1897;-72
2023/10/29 12:20:19;;;;;;;;;;;;;;;18.50;58.80;97715.50;10329522;28;989;-73
2023/10/29 12:25:16;;;;;;;;;;;;;;;18.48;58.71;97712.13;10309130;28;1160;-73
2023/10/29 12:30:12;;;;;;;;;;;;;;;18.45;58.80;97715.03;10288079;28;1473;-73
2023/10/29 12:35:07;;;;;;;;;;;;;;;18.43;58.78;97724.84;10288681;28;1918;-73
2023/10/29 12:40:03;;;;;;;;;;;;;;;18.46;58.86;97695.59;10288175;28;888;-73
2023/10/29 12:45:00;;;;;;;;;;;;;;;18.47;58.94;97707.84;10288430;28;972;-73
2023/10/29 12:49:56;;;;;;;;;;;;;;;18.46;58.80;97682.41;10287534;28;960;-73
2023/10/29 12:54:52;;;;;;;;;;;;;;;18.47;58.80;97677.94;10286504;28;1898;-73
2023/10/29 12:59:48;;;;;;;;;;;;;;;18.48;58.77;97669.09;10287104;28;902;-73
2023/10/29 13:04:44;;;;;;;;;;;;;;;18.47;58.78;97678.81;10287683;28;1152;-73
2023/10/29 13:09:41;;;;;;;;;;;;;;;18.49;58.97;97694.50;10285956;28;879;-73
2023/10/29 13:14:37;;;;;;;;;;;;;;;18.46;58.91;97702.66;10285422;28;1890;-73
2023/10/29 13:19:33;;;;;;;;;;;;;;;18.43;59.02;97716.09;10283056;28;972;-75
2023/10/29 13:24:29;;;;;;;;;;;;;;;18.41;59.24;97721.47;10286374;28;853;-78
2023/10/29 13:29:26;;;;;;;;;;;;;;;18.50;58.78;97714.66;10285690;28;1119;-72
2023/10/29 13:34:22;;;;;;;;;;;;;;;18.51;58.93;97700.50;10285886;28;1913;-73
2023/10/29 13:39:18;;;;;;;;;;;;;;;18.50;58.87;97643.44;10285555;28;848;-70
2023/10/29 13:44:15;;;;;;;;;;;;;;;18.50;59.04;97615.25;10285891;28;877;-72
2023/10/29 13:49:11;;;;;;;;;;;;;;;18.48;58.97;97582.88;10286090;28;862;-72
2023/10/29 13:54:08;;;;;;;;;;;;;;;18.52;59.04;97639.72;10284995;28;1949;-72
2023/10/29 13:59:04;;;;;;;;;;;;;;;18.53;59.10;97659.84;10285592;28;884;-72
2023/10/29 14:04:00;;;;;;;;;;;;;;;18.50;59.08;97617.06;10285770;28;857;-71
2023/10/29 14:08:56;;;;;;;;;;;;;;;18.50;59.08;97585.41;10285343;28;1500;-71
2023/10/29 14:13:55;;;;;;;;;;;;;;;18.50;59.22;97625.81;10284966;28;1890;-71
2023/10/29 14:18:51;;;;;;;;;;;;;;;18.51;59.12;97584.44;10284427;28;977;-71
2023/10/29 14:23:47;;;;;;;;;;;;;;;18.53;58.97;97607.09;10290070;28;1220;-71
2023/10/29 14:28:43;;;;;;;;;;;;;;;18.52;58.97;97586.09;10324998;28;777;-72
2023/10/29 14:33:39;;;;;;;;;;;;;;;18.50;59.06;97578.31;10324577;28;1906;-71
2023/10/29 14:38:34;;;;;;;;;;;;;;;18.48;59.04;97574.13;10325584;28;900;-73
2023/10/29 14:43:30;;;;;;;;;;;;;;;18.47;59.18;97557.47;10324421;28;790;-73
2023/10/29 14:48:26;;;;;;;;;;;;;;;18.43;58.98;97565.75;10324126;28;861;-72
2023/10/29 14:53:22;;;;;;;;;;;;;;;18.37;59.20;97560.00;10324760;28;898;-74
2023/10/29 14:58:18;;;;;;;;;;;;;;;18.35;59.06;97547.91;10324484;28;1890;-72
2023/10/29 15:03:14;;;;;;;;;;;;;;;18.33;59.36;97555.09;10324568;28;764;-76
2023/10/29 15:08:10;;;;;;;;;;;;;;;18.35;59.28;97550.53;10323970;28;751;-72
2023/10/29 15:13:06;;;;;;;;;;;;;;;18.34;59.44;97562.91;10323754;28;750;-74
2023/10/29 15:18:02;;;;;;;;;;;;;;;18.36;59.33;97602.31;10324034;28;1894;-72
2023/10/29 15:22:57;;;;;;;;;;;;;;;18.37;59.12;97614.56;10324004;28;951;-72
2023/10/29 15:27:53;;;;;;;;;;;;;;;18.39;59.00;97597.66;10321531;28;1268;-76
2023/10/29 15:32:53;;;;;;;;;;;;;;;18.43;58.88;97587.69;10285198;28;1137;-75
2023/10/29 15:37:49;;;;;;;;;;;;;;;18.39;58.98;97575.69;10287096;28;1957;-75
2023/10/29 15:42:44;;;;;;;;;;;;;;;18.45;59.03;97548.00;10289587;28;925;-75
2023/10/29 15:47:40;;;;;;;;;;;;;;;18.48;58.84;97590.78;10290670;28;802;-74
2023/10/29 15:52:36;;;;;;;;;;;;;;;18.49;58.86;97602.19;10289249;28;1048;-77
2023/10/29 15:57:32;;;;;;;;;;;;;;;18.45;58.82;97617.41;10289776;28;1894;-76
2023/10/29 16:02:29;;;;;;;;;;;;;;;18.47;58.97;97614.63;10288908;28;867;-76
2023/10/29 16:07:25;;;;;;;;;;;;;;;18.51;58.82;97611.63;10289441;28;1150;-76
2023/10/29 16:12:21;;;;;;;;;;;;;;;18.52;58.71;97623.91;10289524;28;872;-76
2023/10/29 16:17:17;;;;;;;;;;;;;;;18.52;59.00;97630.94;10289772;28;1985;-76
2023/10/29 16:22:15;;;;;;;;;;;;;;;18.52;58.91;97638.84;10289368;28;767;-77
2023/10/29 16:27:11;;;;;;;;;;;;;;;18.54;58.98;97661.50;10288626;28;920;-77
2023/10/29 16:32:07;;;;;;;;;;;;;;;18.57;59.11;97678.91;10288797;28;1139;-78
2023/10/29 16:37:03;;;;;;;;;;;;;;;18.57;59.11;97679.75;10288666;28;1971;-78
2023/10/29 16:42:01;;;;;;;;;;;;;;;18.56;58.91;97661.41;10287940;28;931;-78
2023/10/29 16:46:57;;;;;;;;;;;;;;;18.53;58.76;97670.41;10286927;28;863;-77
2023/10/29 16:51:53;;;;;;;;;;;;;;;18.57;58.72;97684.19;10287512;28;783;-78
2023/10/29 16:56:49;;;;;;;;;;;;;;;18.59;58.69;97680.47;10287482;28;1964;-78
2023/10/29 17:01:45;;;;;;;;;;;;;;;18.60;58.60;97678.66;10286491;28;842;-78
2023/10/29 17:06:41;;;;;;;;;;;;;;;18.61;58.67;97685.63;10288012;28;838;-78
2023/10/29 17:11:38;;;;;;;;;;;;;;;18.58;58.81;97699.91;10287406;28;869;-78
2023/10/29 17:16:34;;;;;;;;;;;;;;;18.58;58.64;97706.97;10287201;28;1890;-78
2023/10/29 17:21:30;;;;;;;;;;;;;;;18.61;58.76;97726.03;10286339;28;806;-78
2023/10/29 17:26:27;;;;;;;;;;;;;;;18.62;58.73;97721.59;10286586;28;885;-78
2023/10/29 17:31:23;;;;;;;;;;;;;;;18.60;58.75;97727.00;10286153;28;1599;-78
2023/10/29 17:36:19;;;;;;;;;;;;;;;18.60;58.61;97740.22;10303494;28;1910;-77
2023/10/29 17:41:14;;;;;;;;;;;;;;;18.60;58.95;97739.34;10326181;28;758;-77
2023/10/29 17:46:10;;;;;;;;;;;;;;;18.61;58.69;97748.94;10326170;28;865;-77
2023/10/29 17:51:09;;;;;;;;;;;;;;;18.61;58.80;97757.72;10326051;28;968;-77
2023/10/29 17:56:05;;;;;;;;;;;;;;;18.62;58.60;97775.19;10325577;28;1885;-77
2023/10/29 18:01:01;;;;;;;;;;;;;;;18.60;58.91;97763.09;10325003;28;1239;-78
2023/10/29 18:05:57;;;;;;;;;;;;;;;18.59;58.98;97775.44;10325824;28;797;-78
2023/10/29 18:10:53;;;;;;;;;;;;;;;18.61;58.78;97786.72;10325379;28;866;-77
2023/10/29 18:15:49;;;;;;;;;;;;;;;18.62;58.79;97795.47;10325605;28;1951;-77
2023/10/29 18:20:45;;;;;;;;;;;;;;;18.61;58.60;97786.72;10325210;28;838;-77
2023/10/29 18:25:41;;;;;;;;;;;;;;;18.59;58.76;97782.53;10325368;28;811;-77
2023/10/29 18:30:37;;;;;;;;;;;;;;;18.60;58.72;97785.06;10325649;28;1161;-76
2023/10/29 18:35:33;;;;;;;;;;;;;;;18.62;58.65;97792.84;10325034;28;1969;-74
2023/10/29 18:40:30;;;;;;;;;;;;;;;18.64;58.59;97801.47;10323966;28;797;-76
2023/10/29 18:45:25;;;;;;;;;;;;;;;18.60;58.37;97800.91;10324976;28;790;-76
2023/10/29 18:50:21;;;;;;;;;;;;;;;18.61;58.64;97810.47;10325591;28;975;-77
2023/10/29 18:55:17;;;;;;;;;;;;;;;18.61;58.66;97821.03;10324722;28;1890;-78
2023/10/29 19:00:13;;;;;;;;;;;;;;;18.64;58.57;97821.75;10325339;28;830;-77
2023/10/29 19:05:11;;;;;;;;;;;;;;;18.65;58.46;97833.97;10324586;28;766;-75
2023/10/29 19:10:07;;;;;;;;;;;;;;;18.62;58.44;97849.09;10329885;28;1004;-76
2023/10/29 19:15:03;;;;;;;;;;;;;;;18.61;58.47;97847.41;10333135;28;1894;-75
2023/10/29 19:19:59;;;;;;;;;;;;;;;18.64;58.29;97854.25;10332525;28;825;-79
2023/10/29 19:24:55;;;;;;;;;;;;;;;18.62;58.37;97846.44;10331421;28;917;-76
2023/10/29 19:29:51;;;;;;;;;;;;;;;18.65;58.37;97871.75;10331407;28;1307;-77
2023/10/29 19:34:47;;;;;;;;;;;;;;;18.61;57.97;97881.72;10331366;28;1906;-77
2023/10/29 19:39:43;;;;;;;;;;;;;;;18.59;58.22;97888.91;10329723;28;1156;-76
2023/10/29 19:44:40;;;;;;;;;;;;;;;18.61;58.15;97902.84;10330392;28;1250;-77
2023/10/29 19:49:36;;;;;;;;;;;;;;;18.65;58.04;97908.72;10332018;28;811;-76
2023/10/29 19:54:32;;;;;;;;;;;;;;;18.65;58.14;97923.69;10331390;28;1893;-77
2023/10/29 19:59:28;;;;;;;;;;;;;;;18.65;57.90;97932.47;10330335;28;806;-77
2023/10/29 20:04:24;;;;;;;;;;;;;;;18.63;57.92;97931.75;10330329;28;865;-77
2023/10/29 20:09:20;;;;;;;;;;;;;;;18.65;58.08;97955.38;10329994;28;849;-77
2023/10/29 20:14:16;;;;;;;;;;;;;;;18.66;58.14;97965.81;10329869;28;1886;-78
2023/10/29 20:19:12;;;;;;;;;;;;;;;18.68;57.90;97984.16;10329386;28;964;-77
2023/10/29 20:24:08;;;;;;;;;;;;;;;18.68;57.86;97974.47;10330191;28;829;-77
2023/10/29 20:29:03;;;;;;;;;;;;;;;18.67;57.73;97979.84;10328938;28;1149;-77
2023/10/29 20:33:59;;;;;;;;;;;;;;;18.64;57.90;97991.47;10330529;28;1906;-77
2023/10/29 20:38:55;;;;;;;;;;;;;;;18.63;57.89;98000.38;10329152;28;889;-77
2023/10/29 20:43:51;;;;;;;;;;;;;;;18.62;57.96;98004.78;10328099;28;1039;-77
2023/10/29 20:48:48;;;;;;;;;;;;;;;18.62;57.95;97996.03;10328249;28;934;-77
2023/10/29 20:53:44;;;;;;;;;;;;;;;18.61;57.95;98008.38;10327782;28;885;-78
2023/10/29 20:58:40;;;;;;;;;;;;;;;18.60;57.98;98012.00;10328607;28;1938;-78
2023/10/29 21:03:36;;;;;;;;;;;;;;;18.58;57.84;98024.44;10327476;28;984;-78
2023/10/29 21:08:31;;;;;;;;;;;;;;;18.57;57.79;98032.47;10326853;28;795;-78
2023/10/29 21:13:27;;;;;;;;;;;;;;;18.54;57.83;98035.34;10327363;28;922;-77
2023/10/29 21:18:23;;;;;;;;;;;;;;;18.51;57.61;98028.47;10327939;28;1965;-77
2023/10/29 21:23:21;;;;;;;;;;;;;;;18.51;57.80;98038.19;10327156;28;807;-77
2023/10/29 21:28:17;;;;;;;;;;;;;;;18.51;57.74;98036.41;10326664;28;913;-77
2023/10/29 21:33:12;;;;;;;;;;;;;;;18.48;57.84;98041.91;10326466;28;1356;-78
2023/10/29 21:38:10;;;;;;;;;;;;;;;18.49;57.66;98034.81;10326427;28;1977;-77
2023/10/29 21:43:06;;;;;;;;;;;;;;;18.48;57.94;98049.81;10326448;28;1716;-77
2023/10/29 21:48:02;;;;;;;;;;;;;;;18.50;57.85;98047.09;10326136;28;782;-77
2023/10/29 21:52:58;;;;;;;;;;;;;;;18.52;57.71;98063.63;10325295;28;1205;-76
2023/10/29 21:57:54;;;;;;;;;;;;;;;18.51;57.90;98069.88;10325881;28;1961;-78
2023/10/29 22:02:50;;;;;;;;;;;;;;;18.48;57.95;98078.00;10325831;28;833;-77
2023/10/29 22:07:45;;;;;;;;;;;;;;;18.46;57.87;98070.19;10325564;28;802;-78
2023/10/29 22:12:41;;;;;;;;;;;;;;;18.43;57.98;98067.78;10325815;28;901;-77
2023/10/29 22:17:37;;;;;;;;;;;;;;;18.41;57.73;98088.16;10325856;28;1898;-77
2023/10/29 22:22:33;;;;;;;;;;;;;;;18.39;57.80;98096.19;10324682;28;814;-77
2023/10/29 22:27:29;;;;;;;;;;;;;;;18.37;57.62;98094.63;10326097;28;794;-78
2023/10/29 22:32:25;;;;;;;;;;;;;;;18.34;57.88;98097.47;10323348;28;1179;-82
2023/10/29 22:37:21;;;;;;;;;;;;;;;18.31;57.98;98095.91;10325048;28;1913;-72
2023/10/29 22:42:17;;;;;;;;;;;;;;;18.31;57.56;98105.59;10326572;28;873;-83
2023/10/29 22:47:13;;;;;;;;;;;;;;;18.30;57.66;98119.72;10333525;28;857;-81
2023/10/29 22:52:09;;;;;;;;;;;;;;;18.27;57.53;98123.44;10333074;28;953;-80
2023/10/29 22:57:05;;;;;;;;;;;;;;;18.26;57.73;98123.53;10332003;28;1959;-78
2023/10/29 23:02:01;;;;;;;;;;;;;;;18.23;58.12;98123.75;10332743;28;781;-78
2023/10/29 23:06:57;;;;;;;;;;;;;;;18.20;58.02;98135.34;10332545;28;799;-78
2023/10/29 23:11:52;;;;;;;;;;;;;;;18.17;58.17;98139.06;10332291;28;766;-78
2023/10/29 23:16:48;;;;;;;;;;;;;;;18.17;58.02;98146.97;10332070;28;1914;-78
2023/10/29 23:21:44;;;;;;;;;;;;;;;18.15;58.24;98138.31;10331897;28;830;-78
2023/10/29 23:26:40;;;;;;;;;;;;;;;18.11;58.23;98143.94;10332417;28;893;-78
2023/10/29 23:31:36;;;;;;;;;;;;;;;18.09;58.15;98140.56;10331865;28;1085;-78
2023/10/29 23:36:32;;;;;;;;;;;;;;;18.08;58.31;98142.34;10331988;28;1975;-78
2023/10/29 23:41:28;;;;;;;;;;;;;;;18.05;58.13;98126.75;10331209;28;929;-78
2023/10/29 23:46:24;;;;;;;;;;;;;;;18.02;58.37;98132.22;10330422;28;912;-78
2023/10/29 23:51:20;;;;;;;;;;;;;;;18.03;58.20;98149.75;10331500;28;825;-77
2023/10/29 23:56:15;;;;;;;;;;;;;;;17.98;58.05;98146.56;10330672;28;1897;-77
